KMBL/MBL METAR and TAF weather

Enter ICAO airport designator
Station Type Date Time Source
KMBL METAR 2021/09/20 03:56 UTC NOAA

KMBL 200356Z AUTO 10006KT 10SM CLR 20/18 A3002 RMK AO2 SLP163 T02000178 402780083


Station Type Date Time Source
KMBL Decoded METAR 2021/09/20 03:56 UTC NOAA

Manistee, Manistee County-Blacker Airport, MI, United States (KMBL) 44-16N 086-15W
Sep 19, 2021 - 11:56 PM EDT / 2021.09.20 0356 UTC
Wind: from the E (100 degrees) at 7 MPH (6 KT):0
Visibility: 10 mile(s):0
Sky conditions: clear
Temperature: 68.0 F (20.0 C)
Dew Point: 64.0 F (17.8 C)
Relative Humidity: 87%
Pressure (altimeter): 30.02 in. Hg (1016 hPa)
ob: KMBL 200356Z AUTO 10006KT 10SM CLR 20/18 A3002 RMK AO2 SLP163 T02000178 402780083
cycle: 4

Station Type Date Time Source
KMBL TAF 2021/09/19 18:30 UTC NOAA

TAF KMBL 191728Z 1918/2018 18006KT P6SM SKC
FM192100 19006KT P6SM SKC
FM201400 16009KT P6SM BKN080
FM201600 17010KT P6SM BKN050

Example: see airport list